Time;durP1;ratioP1;P1;durP2;ratioP2;P2;SDS_P1;SDS_P2;PMS_P1;PMS_P2;Temp;Humidity;BMP_temperature;BMP_pressure;BME280_temperature;BME280_humidity;BME280_pressure;Samples;Min_cycle;Max_cycle;Signal;HPM_P1;HPM_P2
2022/04/20 00:00:06;;;;;;;0.50;0.50;;;6.00;99.90;;;;;;5059645;28;20919;-69
2022/04/20 00:02:54;;;;;;;0.50;0.50;;;6.00;99.90;;;;;;5058364;28;20428;-70
2022/04/20 00:05:42;;;;;;;0.40;0.40;;;5.90;99.90;;;;;;5055857;28;20447;-70
2022/04/20 00:08:32;;;;;;;0.50;0.50;;;5.90;99.90;;;;;;5053896;28;20470;-69
2022/04/20 00:11:20;;;;;;;0.50;0.50;;;5.80;99.90;;;;;;5054501;28;20941;-69
2022/04/20 00:14:08;;;;;;;0.40;0.40;;;5.80;99.90;;;;;;5055204;28;20425;-69
2022/04/20 00:16:57;;;;;;;0.50;0.50;;;5.70;99.90;;;;;;5054763;28;20486;-69
2022/04/20 00:19:45;;;;;;;0.50;0.50;;;5.80;99.90;;;;;;5054141;28;21025;-69
2022/04/20 00:22:33;;;;;;;0.40;0.40;;;5.80;99.90;;;;;;5053445;28;20971;-69
2022/04/20 00:25:22;;;;;;;1.03;1.03;;;5.90;99.90;;;;;;5054770;28;20460;-70
2022/04/20 00:28:10;;;;;;;0.50;0.50;;;5.90;99.90;;;;;;5053578;28;20495;-68
2022/04/20 00:30:58;;;;;;;0.50;0.50;;;6.00;99.90;;;;;;5054669;28;20424;-69
2022/04/20 00:33:47;;;;;;;0.60;0.60;;;6.10;99.90;;;;;;5053867;28;20432;-69
2022/04/20 00:36:35;;;;;;;0.50;0.50;;;6.20;99.90;;;;;;5053794;28;20492;-69
2022/04/20 00:39:23;;;;;;;0.50;0.50;;;6.20;99.90;;;;;;5054007;28;20425;-69
2022/04/20 00:42:12;;;;;;;0.40;0.40;;;6.20;99.90;;;;;;5053738;28;20466;-69
2022/04/20 00:45:00;;;;;;;0.40;0.40;;;6.20;99.90;;;;;;5054010;28;20801;-68
2022/04/20 00:47:50;;;;;;;0.50;0.50;;;6.20;99.90;;;;;;5054208;28;20464;-69
2022/04/20 00:50:41;;;;;;;0.50;0.50;;;6.20;99.90;;;;;;5053697;28;20424;-69
2022/04/20 00:53:29;;;;;;;0.50;0.50;;;6.20;99.90;;;;;;5052856;28;20881;-69
2022/04/20 00:56:17;;;;;;;0.50;0.50;;;6.20;99.90;;;;;;5053754;28;20440;-69
2022/04/20 00:59:05;;;;;;;0.40;0.40;;;6.30;99.90;;;;;;5052999;28;20424;-69
2022/04/20 01:01:53;;;;;;;0.50;0.50;;;6.20;99.90;;;;;;5054187;28;20483;-68
2022/04/20 01:04:42;;;;;;;0.50;0.50;;;6.30;99.90;;;;;;5053917;28;20738;-70
2022/04/20 01:07:37;;;;;;;0.40;0.40;;;6.30;99.90;;;;;;5053191;28;20447;-71
2022/04/20 01:10:25;;;;;;;0.40;0.40;;;6.40;99.90;;;;;;5054105;28;20419;-69
2022/04/20 01:13:13;;;;;;;0.40;0.40;;;6.40;99.90;;;;;;5053407;28;20431;-68
2022/04/20 01:16:01;;;;;;;0.40;0.40;;;6.40;99.90;;;;;;5053097;28;20448;-68
2022/04/20 01:18:50;;;;;;;0.50;0.50;;;6.50;99.90;;;;;;5053434;28;20424;-69
2022/04/20 01:21:39;;;;;;;0.50;0.50;;;6.50;99.90;;;;;;5052952;28;20486;-69
2022/04/20 01:24:27;;;;;;;1.10;1.00;;;6.50;99.90;;;;;;5053714;28;20482;-69
2022/04/20 01:27:16;;;;;;;0.50;0.50;;;6.50;99.90;;;;;;5055480;28;20449;-69
2022/04/20 01:30:05;;;;;;;0.47;0.47;;;6.50;99.90;;;;;;5056288;28;20538;-69
2022/04/20 01:32:55;;;;;;;0.40;0.40;;;6.50;99.90;;;;;;5071512;28;20434;-68
2022/04/20 01:35:43;;;;;;;0.40;0.40;;;6.50;99.90;;;;;;5076025;28;20509;-68
2022/04/20 01:38:32;;;;;;;0.50;0.50;;;6.40;99.90;;;;;;5076598;28;20444;-68
2022/04/20 01:41:20;;;;;;;0.43;0.43;;;6.40;99.90;;;;;;5075760;28;21032;-70
2022/04/20 01:44:09;;;;;;;0.40;0.40;;;6.40;99.90;;;;;;5072591;28;20461;-68
2022/04/20 01:46:57;;;;;;;0.50;0.50;;;6.40;99.90;;;;;;5073041;28;20447;-68
2022/04/20 01:49:45;;;;;;;0.50;0.50;;;6.40;99.90;;;;;;5072147;28;20900;-69
2022/04/20 01:52:33;;;;;;;0.50;0.50;;;6.30;99.90;;;;;;5071032;28;20502;-69
2022/04/20 01:55:23;;;;;;;0.40;0.40;;;6.30;99.90;;;;;;5071445;28;20424;-69
2022/04/20 01:58:11;;;;;;;0.50;0.50;;;6.30;99.90;;;;;;5071946;28;20966;-68
2022/04/20 02:00:59;;;;;;;0.50;0.50;;;6.20;99.90;;;;;;5071921;28;21036;-69
2022/04/20 02:03:46;;;;;;;0.40;0.40;;;6.20;99.90;;;;;;5074487;28;20973;-69
2022/04/20 02:06:38;;;;;;;0.47;0.47;;;6.20;99.90;;;;;;5074345;28;20443;-69
2022/04/20 02:09:26;;;;;;;0.40;0.40;;;6.10;99.90;;;;;;5072870;28;21052;-69
2022/04/20 02:12:16;;;;;;;0.40;0.40;;;6.20;99.90;;;;;;5071099;28;20423;-69
2022/04/20 02:15:06;;;;;;;0.50;0.50;;;6.30;99.90;;;;;;5072496;28;20842;-69
2022/04/20 02:17:54;;;;;;;0.50;0.50;;;6.30;99.90;;;;;;5072290;28;20423;-69
2022/04/20 02:20:42;;;;;;;0.50;0.50;;;6.30;99.90;;;;;;5072117;28;20419;-69
2022/04/20 02:23:30;;;;;;;0.50;0.50;;;6.40;99.90;;;;;;5071153;28;20428;-69
2022/04/20 02:26:18;;;;;;;0.40;0.40;;;6.40;99.90;;;;;;5071094;28;20439;-70
2022/04/20 02:29:08;;;;;;;0.50;0.50;;;6.40;99.90;;;;;;5071516;28;20612;-70
2022/04/20 02:31:56;;;;;;;0.50;0.50;;;6.40;99.90;;;;;;5070296;28;20451;-69
2022/04/20 02:34:44;;;;;;;0.50;0.50;;;6.40;99.90;;;;;;5071105;28;20423;-69
2022/04/20 02:37:33;;;;;;;0.60;0.60;;;6.40;99.90;;;;;;5071305;28;20463;-69
2022/04/20 02:40:22;;;;;;;0.50;0.50;;;6.40;99.90;;;;;;5071190;28;20508;-69
2022/04/20 02:43:10;;;;;;;0.50;0.50;;;6.40;99.90;;;;;;5071761;28;20508;-69
2022/04/20 02:46:00;;;;;;;0.40;0.40;;;6.50;99.90;;;;;;5071358;28;20447;-69
2022/04/20 02:48:48;;;;;;;0.50;0.50;;;6.40;99.90;;;;;;5071567;28;20554;-69
2022/04/20 02:51:36;;;;;;;0.50;0.50;;;6.50;99.90;;;;;;5071068;28;20459;-69
2022/04/20 02:54:25;;;;;;;0.50;0.50;;;6.50;99.90;;;;;;5071507;28;20427;-69
2022/04/20 02:57:13;;;;;;;0.60;0.60;;;6.40;99.90;;;;;;5071103;28;20443;-68
2022/04/20 03:00:01;;;;;;;0.40;0.40;;;6.30;99.90;;;;;;5071190;28;20431;-68
2022/04/20 03:02:50;;;;;;;0.80;0.80;;;5.80;99.90;;;;;;5071777;28;20889;-68
2022/04/20 03:05:38;;;;;;;0.40;0.40;;;6.30;99.90;;;;;;5071102;28;20964;-69
2022/04/20 03:08:26;;;;;;;1.33;1.03;;;6.30;99.90;;;;;;5070441;28;20987;-68
2022/04/20 03:11:15;;;;;;;0.70;0.70;;;6.30;99.90;;;;;;5070417;28;20426;-69
2022/04/20 03:14:03;;;;;;;0.50;0.50;;;6.40;99.90;;;;;;5070592;28;20478;-69
2022/04/20 03:16:51;;;;;;;0.40;0.40;;;6.40;99.90;;;;;;5070693;28;20842;-68
2022/04/20 03:19:40;;;;;;;0.47;0.47;;;6.50;99.90;;;;;;5071340;28;20422;-69
2022/04/20 03:22:28;;;;;;;0.40;0.40;;;6.50;99.90;;;;;;5070936;28;20455;-69
2022/04/20 03:25:17;;;;;;;0.40;0.40;;;6.50;99.90;;;;;;5071152;28;20453;-69
2022/04/20 03:28:05;;;;;;;0.40;0.40;;;6.60;99.90;;;;;;5070941;28;20466;-68
2022/04/20 03:30:53;;;;;;;0.70;0.70;;;6.60;99.90;;;;;;5070732;28;20504;-68
2022/04/20 03:33:41;;;;;;;0.40;0.40;;;6.60;99.90;;;;;;5070623;28;20524;-68
2022/04/20 03:36:31;;;;;;;0.50;0.50;;;6.60;99.90;;;;;;5070576;28;20466;-68
2022/04/20 03:39:19;;;;;;;0.50;0.50;;;6.60;99.90;;;;;;5070977;28;20476;-68
2022/04/20 03:42:09;;;;;;;1.53;1.47;;;6.70;99.90;;;;;;5070277;28;20514;-68
2022/04/20 03:44:57;;;;;;;0.40;0.40;;;6.60;99.90;;;;;;5073514;28;20419;-69
2022/04/20 03:47:45;;;;;;;0.50;0.50;;;6.70;99.90;;;;;;5073773;28;20965;-68
2022/04/20 03:50:37;;;;;;;0.50;0.50;;;6.80;99.90;;;;;;5074222;28;20987;-68
2022/04/20 03:53:27;;;;;;;0.50;0.50;;;6.70;99.90;;;;;;5074085;28;20926;-68
2022/04/20 03:56:15;;;;;;;0.50;0.50;;;6.80;99.90;;;;;;5074693;28;20512;-70
2022/04/20 03:59:03;;;;;;;0.50;0.50;;;6.80;99.90;;;;;;5074091;28;20462;-70
2022/04/20 04:01:51;;;;;;;0.40;0.40;;;6.80;99.90;;;;;;5073902;28;20577;-69
2022/04/20 04:04:39;;;;;;;0.40;0.40;;;6.80;99.90;;;;;;5074503;28;20445;-69
2022/04/20 04:07:28;;;;;;;0.50;0.50;;;6.90;99.90;;;;;;5074599;28;20982;-68
2022/04/20 04:10:18;;;;;;;0.40;0.40;;;6.80;99.90;;;;;;5073950;28;20509;-69
2022/04/20 04:13:06;;;;;;;0.40;0.40;;;6.80;99.90;;;;;;5073716;28;20422;-69
2022/04/20 04:15:54;;;;;;;0.40;0.40;;;6.80;99.90;;;;;;5074359;28;20493;-69
2022/04/20 04:18:42;;;;;;;0.77;0.77;;;6.90;99.90;;;;;;5074303;28;20473;-68
2022/04/20 04:21:31;;;;;;;0.50;0.50;;;6.90;99.90;;;;;;5073636;28;20411;-69
2022/04/20 04:24:39;;;;;;;0.43;0.43;;;6.90;99.90;;;;;;5073697;28;20510;-68
2022/04/20 04:27:28;;;;;;;0.50;0.50;;;6.90;99.90;;;;;;5073082;28;20460;-69
2022/04/20 04:30:16;;;;;;;0.40;0.40;;;7.00;99.90;;;;;;5073675;28;20940;-69
2022/04/20 04:33:05;;;;;;;1.37;1.27;;;7.00;99.90;;;;;;5073818;28;20450;-68
2022/04/20 04:35:53;;;;;;;0.50;0.50;;;7.00;99.90;;;;;;5073001;28;20451;-68
2022/04/20 04:38:41;;;;;;;0.50;0.50;;;6.90;99.90;;;;;;5073523;28;20504;-68
2022/04/20 04:41:29;;;;;;;0.50;0.50;;;6.90;99.90;;;;;;5073954;28;20844;-69
2022/04/20 04:44:19;;;;;;;0.40;0.40;;;7.00;99.90;;;;;;5073750;28;21001;-69
2022/04/20 04:50:14;;;;;;;0.50;0.50;;;7.10;99.90;;;;;;5072642;28;20498;-68
2022/04/20 04:53:02;;;;;;;0.50;0.50;;;7.20;99.90;;;;;;5073058;28;20504;-68
2022/04/20 04:55:50;;;;;;;0.40;0.40;;;7.20;99.90;;;;;;5071299;28;20515;-68
2022/04/20 04:58:38;;;;;;;0.40;0.40;;;7.30;99.90;;;;;;5073174;28;20466;-68
2022/04/20 05:01:27;;;;;;;0.50;0.50;;;7.20;99.90;;;;;;5073660;28;20426;-69
2022/04/20 05:04:16;;;;;;;0.50;0.50;;;7.30;99.90;;;;;;5073758;28;20557;-69
2022/04/20 05:07:04;;;;;;;0.40;0.40;;;7.30;99.90;;;;;;5073367;28;20439;-69
2022/04/20 05:09:53;;;;;;;0.50;0.50;;;7.30;99.90;;;;;;5073674;28;20431;-68
2022/04/20 05:12:41;;;;;;;0.50;0.50;;;7.40;99.90;;;;;;5073398;28;20488;-68
2022/04/20 05:15:29;;;;;;;0.40;0.40;;;7.50;99.90;;;;;;5073231;28;20427;-69
2022/04/20 05:18:18;;;;;;;0.50;0.50;;;7.50;99.90;;;;;;5073162;28;20566;-68
2022/04/20 05:21:06;;;;;;;0.50;0.50;;;7.60;99.90;;;;;;5073444;28;21016;-69
2022/04/20 05:23:58;;;;;;;0.50;0.50;;;7.70;99.90;;;;;;5073081;28;20419;-69
2022/04/20 05:26:46;;;;;;;0.40;0.40;;;7.60;99.90;;;;;;5072984;28;20435;-69
2022/04/20 05:29:34;;;;;;;0.50;0.50;;;7.70;99.90;;;;;;5073289;28;20423;-70
2022/04/20 05:32:22;;;;;;;0.40;0.40;;;7.80;99.90;;;;;;5072953;28;20520;-69
2022/04/20 05:35:11;;;;;;;0.80;0.70;;;8.00;99.90;;;;;;5072225;28;20447;-70
2022/04/20 05:44:12;;;;;;;1.03;1.03;;;8.70;99.90;;;;;;5071859;28;20476;-69
2022/04/20 05:47:01;;;;;;;0.50;0.50;;;8.70;99.90;;;;;;5072497;28;20444;-70
2022/04/20 05:49:49;;;;;;;0.63;0.63;;;8.80;99.90;;;;;;5072574;28;21020;-69
2022/04/20 05:52:38;;;;;;;0.40;0.40;;;9.00;99.90;;;;;;5071623;28;20473;-69
2022/04/20 05:55:26;;;;;;;0.40;0.40;;;9.10;99.90;;;;;;5071535;28;20470;-70
2022/04/20 05:58:14;;;;;;;0.50;0.50;;;9.00;99.90;;;;;;5071777;28;20502;-68
2022/04/20 06:01:02;;;;;;;0.40;0.40;;;8.90;99.90;;;;;;5072860;28;20423;-69
2022/04/20 06:03:51;;;;;;;0.40;0.40;;;8.80;99.90;;;;;;5073244;28;20420;-70
2022/04/20 06:06:39;;;;;;;0.50;0.50;;;8.70;99.90;;;;;;5072242;28;21025;-70
2022/04/20 06:09:28;;;;;;;0.40;0.40;;;8.60;99.90;;;;;;5071861;28;20954;-71
2022/04/20 06:12:16;;;;;;;0.50;0.50;;;8.70;99.90;;;;;;5071195;28;20463;-69
2022/04/20 06:15:06;;;;;;;0.40;0.40;;;8.70;99.90;;;;;;5071267;28;20427;-69
2022/04/20 06:17:54;;;;;;;0.40;0.40;;;8.80;99.90;;;;;;5071993;28;20427;-69
2022/04/20 06:20:42;;;;;;;0.40;0.40;;;8.80;99.90;;;;;;5072047;28;20457;-70
2022/04/20 06:23:30;;;;;;;0.40;0.40;;;8.80;99.90;;;;;;5071775;28;20512;-70
2022/04/20 06:26:20;;;;;;;0.47;0.47;;;8.90;99.90;;;;;;5071103;28;20475;-70
2022/04/20 06:29:08;;;;;;;0.50;0.50;;;9.00;99.90;;;;;;5071898;28;20977;-70
2022/04/20 06:31:56;;;;;;;0.50;0.50;;;9.00;99.90;;;;;;5071188;28;20549;-70
2022/04/20 06:34:44;;;;;;;0.60;0.60;;;9.10;99.90;;;;;;5071628;28;20423;-69
2022/04/20 06:37:32;;;;;;;1.23;1.00;;;9.10;99.90;;;;;;5071822;28;20544;-70
2022/04/20 06:40:20;;;;;;;1.43;1.37;;;9.00;99.90;;;;;;5071953;28;20423;-71
2022/04/20 06:43:09;;;;;;;0.50;0.50;;;9.00;99.90;;;;;;5072006;28;20423;-70
2022/04/20 06:45:58;;;;;;;0.40;0.40;;;9.00;99.90;;;;;;5071420;28;20501;-70
2022/04/20 06:48:46;;;;;;;0.40;0.40;;;9.00;99.90;;;;;;5070772;28;20927;-69
2022/04/20 07:00:49;;;;;;;0.50;0.50;;;9.10;99.90;;;;;;5070186;28;20420;-71
2022/04/20 07:03:38;;;;;;;7.10;1.93;;;9.20;99.90;;;;;;5071495;28;20427;-70
2022/04/20 07:06:27;;;;;;;0.40;0.40;;;9.20;99.90;;;;;;5070365;28;21016;-68
2022/04/20 07:09:15;;;;;;;0.47;0.47;;;9.30;99.90;;;;;;5071695;28;20504;-70
2022/04/20 07:12:03;;;;;;;0.40;0.40;;;9.30;99.90;;;;;;5071158;28;20876;-70
2022/04/20 07:14:51;;;;;;;0.50;0.50;;;9.50;99.90;;;;;;5071050;28;20936;-70
2022/04/20 07:17:41;;;;;;;0.70;0.70;;;9.70;99.90;;;;;;5071366;28;20467;-70
2022/04/20 07:20:29;;;;;;;0.50;0.50;;;9.80;99.90;;;;;;5073215;28;20447;-70
2022/04/20 07:23:17;;;;;;;0.40;0.40;;;9.80;99.90;;;;;;5076255;28;20793;-70
2022/04/20 07:26:05;;;;;;;2.40;1.60;;;10.00;99.90;;;;;;5073413;28;20450;-70
2022/04/20 07:28:55;;;;;;;0.50;0.50;;;10.00;99.90;;;;;;5074175;28;20564;-70
2022/04/20 07:31:43;;;;;;;0.50;0.50;;;10.00;99.90;;;;;;5074870;28;20489;-70
2022/04/20 07:34:32;;;;;;;1.17;0.93;;;10.10;99.90;;;;;;5075245;28;20434;-70
2022/04/20 07:37:20;;;;;;;0.40;0.40;;;10.20;99.90;;;;;;5074207;28;20455;-68
2022/04/20 07:40:09;;;;;;;0.50;0.50;;;10.30;99.90;;;;;;5074828;28;20427;-70
2022/04/20 07:42:58;;;;;;;0.40;0.40;;;10.70;99.90;;;;;;5075436;28;21077;-70
2022/04/20 07:45:46;;;;;;;0.40;0.40;;;10.90;99.90;;;;;;5076518;28;20576;-72
2022/04/20 07:48:34;;;;;;;0.40;0.40;;;11.40;99.90;;;;;;5076298;28;20437;-71
2022/04/20 07:51:23;;;;;;;0.60;0.60;;;11.80;99.90;;;;;;5075207;28;20478;-71
2022/04/20 07:54:12;;;;;;;0.60;0.60;;;12.20;99.90;;;;;;5075235;28;20474;-69
2022/04/20 07:57:00;;;;;;;0.50;0.50;;;12.40;99.90;;;;;;5075722;28;20451;-69
2022/04/20 07:59:48;;;;;;;2.50;2.40;;;12.30;99.90;;;;;;5076179;28;20435;-68
2022/04/20 08:02:36;;;;;;;0.70;0.70;;;12.30;99.90;;;;;;5074647;28;20447;-69
2022/04/20 08:05:24;;;;;;;0.40;0.40;;;12.60;99.90;;;;;;5074533;28;20788;-69
2022/04/20 08:08:15;;;;;;;0.70;0.70;;;12.70;99.90;;;;;;5075355;28;20943;-70
2022/04/20 08:11:03;;;;;;;1.07;1.07;;;12.90;99.90;;;;;;5075337;28;20432;-69
2022/04/20 08:14:10;;;;;;;1.23;1.20;;;13.00;99.90;;;;;;5075443;28;20971;-70
2022/04/20 08:16:58;;;;;;;0.50;0.50;;;12.80;99.90;;;;;;5075681;28;20443;-70
2022/04/20 08:19:46;;;;;;;0.40;0.40;;;12.60;99.90;;;;;;5075347;28;20975;-69
2022/04/20 08:22:40;;;;;;;0.40;0.40;;;12.70;99.90;;;;;;5073738;28;20439;-68
2022/04/20 08:25:30;;;;;;;0.50;0.40;;;12.90;99.90;;;;;;5073070;28;20419;-70
2022/04/20 08:28:18;;;;;;;0.40;0.40;;;12.90;99.90;;;;;;5075733;28;20427;-70
2022/04/20 08:31:06;;;;;;;0.50;0.50;;;13.20;99.90;;;;;;5075360;28;20470;-71
2022/04/20 08:33:54;;;;;;;0.40;0.40;;;13.50;99.90;;;;;;5075510;28;20204;-69
2022/04/20 08:36:42;;;;;;;0.40;0.40;;;14.00;99.90;;;;;;5074132;28;20528;-69
2022/04/20 08:39:30;;;;;;;0.80;0.80;;;14.40;99.90;;;;;;5075044;28;20192;-69
2022/04/20 08:42:22;;;;;;;0.40;0.40;;;14.80;99.90;;;;;;5074774;28;20220;-70
2022/04/20 08:45:11;;;;;;;0.50;0.50;;;14.70;99.90;;;;;;5074230;28;20196;-71
2022/04/20 08:47:59;;;;;;;0.40;0.40;;;14.50;99.90;;;;;;5072000;28;20435;-70
2022/04/20 08:50:47;;;;;;;0.40;0.40;;;14.50;99.90;;;;;;5070969;28;20665;-69
2022/04/20 08:53:36;;;;;;;0.50;0.50;;;14.60;99.90;;;;;;5074690;28;20467;-69
2022/04/20 08:59:34;;;;;;;0.50;0.50;;;14.30;99.90;;;;;;5074810;28;20224;-69
2022/04/20 09:02:24;;;;;;;0.60;0.60;;;13.90;99.90;;;;;;5075717;28;20192;-69
2022/04/20 09:05:13;;;;;;;0.40;0.40;;;13.90;99.90;;;;;;5074997;28;20416;-70
2022/04/20 09:08:10;;;;;;;0.50;0.50;;;14.20;99.90;;;;;;5055183;28;20208;-70
2022/04/20 09:10:58;;;;;;;0.50;0.50;;;14.20;99.30;;;;;;5054908;28;20456;-70
2022/04/20 09:13:47;;;;;;;0.40;0.40;;;14.00;98.80;;;;;;5056869;28;20992;-70
2022/04/20 09:16:38;;;;;;;0.40;0.40;;;14.00;98.70;;;;;;5071239;28;20228;-69
2022/04/20 09:19:27;;;;;;;0.40;0.40;;;14.40;98.40;;;;;;5075929;28;20201;-68
2022/04/20 09:22:20;;;;;;;0.60;0.60;;;14.40;98.00;;;;;;5073682;28;20423;-70
2022/04/20 09:25:11;;;;;;;0.50;0.50;;;14.60;97.90;;;;;;5074975;28;20201;-69
2022/04/20 09:27:59;;;;;;;0.80;0.77;;;14.60;97.10;;;;;;5073305;28;20204;-70
2022/04/20 09:30:51;;;;;;;0.40;0.40;;;14.50;97.10;;;;;;5066286;28;20243;-69
2022/04/20 09:33:45;;;;;;;0.40;0.40;;;14.30;97.50;;;;;;5073273;28;20228;-69
2022/04/20 09:36:43;;;;;;;1.07;1.07;;;14.40;98.10;;;;;;5073608;28;20455;-69
2022/04/20 09:39:32;;;;;;;1.03;0.70;;;14.50;97.40;;;;;;5073062;28;20204;-69
2022/04/20 09:42:21;;;;;;;0.50;0.50;;;14.30;97.20;;;;;;5073120;28;20670;-69
2022/04/20 09:45:09;;;;;;;0.40;0.40;;;14.20;97.80;;;;;;5074676;28;20201;-70
2022/04/20 09:51:10;;;;;;;0.40;0.40;;;14.40;99.10;;;;;;5074339;28;20200;-70
2022/04/20 09:53:58;;;;;;;0.40;0.40;;;14.60;98.90;;;;;;5074293;28;20220;-71
2022/04/20 09:56:46;;;;;;;0.40;0.40;;;14.70;99.30;;;;;;5074504;28;20231;-69
2022/04/20 09:59:35;;;;;;;0.60;0.60;;;14.70;99.80;;;;;;5074222;28;20226;-68
2022/04/20 10:02:23;;;;;;;0.40;0.40;;;14.30;99.60;;;;;;5072378;28;20275;-70
2022/04/20 10:05:11;;;;;;;0.40;0.40;;;14.20;99.90;;;;;;5071798;28;20196;-70
2022/04/20 10:08:02;;;;;;;0.50;0.50;;;14.20;99.90;;;;;;5068016;28;20236;-68
2022/04/20 10:10:53;;;;;;;0.50;0.50;;;14.20;99.90;;;;;;5071811;28;20216;-69
2022/04/20 10:13:41;;;;;;;0.40;0.40;;;14.10;99.90;;;;;;5072133;28;20631;-70
2022/04/20 10:16:29;;;;;;;0.40;0.40;;;14.20;99.90;;;;;;5073899;28;20221;-68
2022/04/20 10:19:25;;;;;;;0.40;0.40;;;14.40;99.90;;;;;;5070293;28;20205;-69
2022/04/20 10:22:13;;;;;;;0.40;0.40;;;14.50;99.90;;;;;;5054087;28;20205;-69
2022/04/20 10:25:05;;;;;;;0.40;0.40;;;14.80;99.90;;;;;;5063494;28;20224;-68
2022/04/20 10:28:11;;;;;;;0.40;0.40;;;15.10;99.90;;;;;;5072793;28;20242;-69
2022/04/20 10:31:16;;;;;;;0.47;0.47;;;15.20;99.90;;;;;;5054779;28;20201;-68
2022/04/20 10:34:05;;;;;;;0.40;0.40;;;15.20;99.90;;;;;;5065651;28;20262;-70
2022/04/20 10:36:57;;;;;;;0.50;0.50;;;15.40;99.90;;;;;;5074903;28;20732;-70
2022/04/20 10:39:46;;;;;;;0.40;0.40;;;15.70;99.90;;;;;;5073633;28;20208;-68
2022/04/20 10:42:35;;;;;;;0.50;0.50;;;15.90;99.90;;;;;;5066770;28;20198;-69
2022/04/20 10:45:23;;;;;;;0.40;0.40;;;16.10;99.90;;;;;;5054506;28;20206;-69
2022/04/20 10:48:17;;;;;;;0.40;0.40;;;16.10;99.80;;;;;;5053524;28;20291;-68
2022/04/20 10:51:12;;;;;;;0.40;0.40;;;16.00;99.10;;;;;;5054595;28;20228;-69
2022/04/20 10:54:26;;;;;;;0.40;0.40;;;15.80;97.40;;;;;;5052563;28;20217;-69
2022/04/20 10:57:15;;;;;;;0.40;0.40;;;15.60;97.90;;;;;;5052535;28;20213;-69
2022/04/20 11:00:33;;;;;;;0.40;0.40;;;15.90;98.90;;;;;;5052553;28;20201;-69
2022/04/20 11:03:21;;;;;;;0.40;0.40;;;16.10;99.10;;;;;;5053844;28;20193;-67
2022/04/20 11:06:10;;;;;;;0.40;0.40;;;16.20;98.10;;;;;;5053003;28;20314;-69
2022/04/20 11:09:00;;;;;;;0.40;0.40;;;16.20;97.40;;;;;;5065815;28;20196;-68
2022/04/20 11:21:23;;;;;;;0.50;0.50;;;16.30;96.60;;;;;;5071188;28;20196;-70
2022/04/20 11:24:13;;;;;;;0.50;0.50;;;16.60;96.00;;;;;;5075256;28;20208;-68
2022/04/20 11:27:02;;;;;;;0.40;0.40;;;16.90;95.60;;;;;;5072986;28;20256;-68
2022/04/20 11:29:50;;;;;;;0.40;0.40;;;17.00;96.00;;;;;;5071935;28;20276;-68
2022/04/20 11:32:39;;;;;;;0.40;0.40;;;17.10;94.70;;;;;;5071953;28;20251;-69
2022/04/20 11:35:29;;;;;;;0.40;0.40;;;16.70;95.60;;;;;;5070518;28;20323;-68
2022/04/20 11:38:17;;;;;;;0.40;0.40;;;16.40;96.40;;;;;;5072036;28;20584;-68
2022/04/20 11:41:05;;;;;;;0.40;0.40;;;16.00;96.90;;;;;;5070988;28;20204;-69
2022/04/20 11:43:54;;;;;;;0.40;0.40;;;15.50;96.30;;;;;;5069012;28;20197;-66
2022/04/20 11:46:44;;;;;;;0.40;0.40;;;15.40;97.50;;;;;;5071857;28;20618;-68
2022/04/20 11:49:34;;;;;;;0.40;0.40;;;15.10;97.30;;;;;;5072717;28;20200;-73
2022/04/20 11:52:26;;;;;;;0.40;0.40;;;15.00;97.90;;;;;;5073045;28;20227;-69
2022/04/20 11:55:18;;;;;;;0.40;0.40;;;15.20;99.10;;;;;;5072449;28;20284;-69
2022/04/20 11:58:16;;;;;;;0.40;0.40;;;15.20;97.30;;;;;;5053808;28;20212;-71
2022/04/20 12:01:07;;;;;;;0.40;0.40;;;15.00;97.00;;;;;;5055909;28;20673;-68
2022/04/20 12:03:55;;;;;;;0.90;0.90;;;15.10;97.20;;;;;;5072894;28;20229;-70
2022/04/20 12:06:49;;;;;;;0.40;0.40;;;14.90;97.20;;;;;;5077825;28;20645;-71
2022/04/20 12:09:42;;;;;;;1.05;0.95;;;14.70;97.60;;;;;;5078305;28;20721;-72
2022/04/20 12:12:32;;;;;;;0.40;0.40;;;14.50;97.80;;;;;;5076955;28;20566;-69
2022/04/20 12:15:21;;;;;;;0.40;0.40;;;14.50;98.30;;;;;;5076744;28;20705;-71
2022/04/20 12:18:09;;;;;;;2.05;0.70;;;14.40;98.40;;;;;;5077210;28;20208;-71
2022/04/20 12:20:57;;;;;;;0.50;0.50;;;14.10;98.80;;;;;;5077591;28;20215;-71
2022/04/20 12:23:47;;;;;;;0.70;0.60;;;14.00;99.00;;;;;;5076280;28;20243;-72
2022/04/20 12:26:42;;;;;;;0.60;0.50;;;14.00;99.10;;;;;;5077853;28;20212;-70
2022/04/20 12:29:33;;;;;;;0.77;0.70;;;14.10;99.10;;;;;;5075881;28;20670;-70
2022/04/20 12:32:24;;;;;;;0.80;0.80;;;14.30;99.10;;;;;;5076060;28;20211;-70
2022/04/20 12:35:20;;;;;;;0.50;0.50;;;14.60;99.00;;;;;;5076535;28;20236;-70
2022/04/20 12:38:08;;;;;;;0.40;0.40;;;14.40;99.40;;;;;;5076902;28;20200;-71
2022/04/20 12:40:57;;;;;;;0.50;0.50;;;14.50;99.50;;;;;;5074670;28;20696;-69
2022/04/20 12:43:47;;;;;;;0.73;0.63;;;14.50;99.50;;;;;;5055642;28;20307;-71
2022/04/20 12:46:35;;;;;;;1.43;1.33;;;14.80;99.70;;;;;;5055869;28;20296;-68
2022/04/20 12:49:24;;;;;;;2.77;0.67;;;14.70;99.00;;;;;;5055840;28;20203;-69
2022/04/20 12:52:15;;;;;;;2.43;1.97;;;14.70;99.00;;;;;;5055362;28;20280;-70
2022/04/20 12:55:08;;;;;;;0.90;0.63;;;14.70;99.20;;;;;;5058906;28;20213;-70
2022/04/20 13:04:10;;;;;;;0.50;0.50;;;15.70;98.20;;;;;;5074581;28;20574;-70
2022/04/20 13:06:58;;;;;;;0.85;0.85;;;16.50;97.70;;;;;;5075982;28;20286;-69
2022/04/20 13:09:46;;;;;;;0.45;0.45;;;17.60;96.50;;;;;;5074014;28;20201;-77
2022/04/20 13:12:47;;;;;;;0.50;0.50;;;18.50;95.60;;;;;;5064768;28;20250;-70
2022/04/20 13:15:35;;;;;;;0.75;0.75;;;18.30;94.00;;;;;;5070805;28;20312;-73
2022/04/20 13:18:25;;;;;;;1.42;0.70;;;18.20;94.00;;;;;;5072374;28;20193;-72
2022/04/20 13:21:13;;;;;;;2.22;1.45;;;17.90;94.80;;;;;;5073173;28;20327;-72
2022/04/20 13:24:02;;;;;;;0.60;0.50;;;18.00;94.50;;;;;;5075302;28;20201;-70
2022/04/20 13:29:56;;;;;;;0.50;0.40;;;18.10;94.60;;;;;;5056793;28;20288;-70
2022/04/20 13:32:44;;;;;;;1.40;1.30;;;17.40;95.20;;;;;;5074778;28;20232;-69
2022/04/20 13:35:34;;;;;;;0.40;0.40;;;16.80;95.40;;;;;;5054702;28;20233;-71
2022/04/20 13:38:23;;;;;;;0.60;0.50;;;16.50;96.50;;;;;;5054960;28;20263;-71
2022/04/20 13:41:11;;;;;;;0.68;0.68;;;16.40;96.20;;;;;;5072987;28;20188;-69
2022/04/20 13:43:59;;;;;;;2.05;0.90;;;16.20;96.40;;;;;;5075466;28;20232;-69
2022/04/20 13:46:47;;;;;;;0.50;0.50;;;16.10;96.70;;;;;;5072864;28;20291;-70
2022/04/20 13:49:36;;;;;;;0.40;0.40;;;16.00;96.80;;;;;;5077752;28;20207;-68
2022/04/20 13:52:25;;;;;;;1.77;0.95;;;16.10;96.80;;;;;;5075180;28;20584;-70
2022/04/20 13:55:13;;;;;;;0.40;0.40;;;15.90;97.00;;;;;;5073336;28;20224;-69
2022/04/20 13:58:02;;;;;;;1.02;1.00;;;15.80;97.50;;;;;;5074199;28;20225;-70
2022/04/20 14:00:51;;;;;;;0.40;0.40;;;15.80;97.30;;;;;;5073198;28;20307;-69
2022/04/20 14:03:39;;;;;;;0.70;0.60;;;15.60;97.50;;;;;;5056343;28;20201;-70
2022/04/20 14:06:27;;;;;;;0.98;0.88;;;15.20;97.20;;;;;;5063912;28;20220;-70
2022/04/20 14:09:18;;;;;;;1.20;0.63;;;14.70;97.00;;;;;;5076415;28;20205;-72
2022/04/20 14:12:07;;;;;;;0.70;0.60;;;14.40;97.50;;;;;;5079671;28;20237;-69
2022/04/20 14:14:59;;;;;;;0.87;0.70;;;14.20;98.00;;;;;;5085892;28;20255;-70
2022/04/20 14:17:47;;;;;;;1.33;0.50;;;14.30;98.40;;;;;;5069154;28;20601;-71
2022/04/20 14:20:35;;;;;;;0.93;0.68;;;14.40;98.00;;;;;;5054683;28;20616;-71
2022/04/20 14:23:23;;;;;;;0.40;0.40;;;14.40;98.00;;;;;;5053871;28;20327;-71
2022/04/20 14:32:24;;;;;;;0.50;0.50;;;14.80;97.30;;;;;;5051052;28;20200;-71
2022/04/20 14:35:12;;;;;;;0.50;0.50;;;15.30;97.00;;;;;;5067527;28;20685;-70
2022/04/20 14:38:00;;;;;;;0.50;0.50;;;15.60;96.60;;;;;;5065145;28;20235;-72
2022/04/20 14:40:48;;;;;;;0.40;0.40;;;16.00;96.10;;;;;;5067204;28;20577;-71
2022/04/20 14:43:38;;;;;;;0.77;0.77;;;16.30;95.90;;;;;;5072984;28;20208;-68
2022/04/20 14:46:26;;;;;;;0.50;0.50;;;16.50;95.50;;;;;;5074582;28;20774;-69
2022/04/20 14:49:15;;;;;;;0.63;0.63;;;16.70;95.20;;;;;;5074545;28;20204;-67
2022/04/20 14:52:06;;;;;;;0.40;0.40;;;16.80;95.10;;;;;;5074247;28;20254;-69
2022/04/20 14:54:54;;;;;;;0.43;0.43;;;16.80;94.90;;;;;;5068617;28;20354;-69
2022/04/20 14:58:02;;;;;;;1.23;1.23;;;16.80;95.20;;;;;;5059272;28;20196;-69
2022/04/20 15:00:51;;;;;;;0.70;0.70;;;17.10;94.80;;;;;;5066965;28;20204;-69
2022/04/20 15:03:40;;;;;;;1.50;0.88;;;17.00;94.60;;;;;;5073255;28;20258;-69
2022/04/20 15:06:29;;;;;;;0.40;0.40;;;16.60;94.50;;;;;;5072949;28;20221;-71
2022/04/20 15:09:17;;;;;;;0.40;0.40;;;16.20;95.20;;;;;;5072723;28;20197;-72
2022/04/20 15:12:08;;;;;;;0.40;0.40;;;15.80;96.10;;;;;;5072529;28;20196;-68
2022/04/20 15:14:58;;;;;;;0.80;0.75;;;15.60;96.60;;;;;;5072158;28;20220;-70
2022/04/20 15:17:48;;;;;;;0.95;0.95;;;15.50;97.00;;;;;;5072364;28;20215;-71
2022/04/20 15:20:36;;;;;;;0.73;0.73;;;15.50;97.20;;;;;;5070214;28;20204;-72
2022/04/20 15:23:24;;;;;;;0.40;0.40;;;15.50;97.40;;;;;;5087701;28;20251;-70
2022/04/20 15:26:12;;;;;;;0.47;0.47;;;15.60;98.00;;;;;;5089527;28;20642;-70
2022/04/20 15:29:02;;;;;;;3.10;0.95;;;15.60;97.40;;;;;;5072958;28;20216;-71
2022/04/20 15:31:54;;;;;;;0.40;0.40;;;15.60;97.20;;;;;;5071545;28;20209;-68
2022/04/20 15:34:43;;;;;;;2.83;2.63;;;15.60;97.30;;;;;;5074175;28;20208;-73
2022/04/20 15:37:32;;;;;;;0.50;0.50;;;15.70;97.50;;;;;;5073577;28;20231;-69